Time;durP1;ratioP1;P1;durP2;ratioP2;P2;SDS_P1;SDS_P2;PMS_P1;PMS_P2;Temp;Humidity;BMP_temperature;BMP_pressure;BME280_temperature;BME280_humidity;BME280_pressure;Samples;Min_cycle;Max_cycle;Signal;HPM_P1;HPM_P2
2022/04/21 00:01:11;;;;;;;6.67;6.07;;;;;;;6.95;75.35;99484.53;5111301;28;20576;-56
2022/04/21 00:03:37;;;;;;;5.63;5.13;;;;;;;6.90;75.35;99491.16;5111381;28;20227;-56
2022/04/21 00:06:04;;;;;;;5.60;5.20;;;;;;;6.95;73.92;99492.19;5111261;28;20445;-56
2022/04/21 00:08:31;;;;;;;6.47;5.87;;;;;;;7.00;74.19;99483.81;5090836;28;20679;-56
2022/04/21 00:10:58;;;;;;;6.27;5.67;;;;;;;6.96;74.57;99499.88;5090900;28;20197;-56
2022/04/21 00:13:25;;;;;;;6.20;5.60;;;;;;;6.99;74.09;99496.53;5091049;28;20194;-56
2022/04/21 00:15:53;;;;;;;6.37;5.77;;;;;;;6.96;74.38;99499.00;5079439;28;313706;-56
2022/04/21 00:18:20;;;;;;;5.93;5.43;;;;;;;6.87;74.80;99488.50;5091663;28;20192;-56
2022/04/21 00:20:47;;;;;;;7.20;6.50;;;;;;;7.00;74.09;99501.69;5090784;28;20527;-56
2022/04/21 00:23:29;;;;;;;6.40;5.80;;;;;;;7.13;73.66;99496.16;5091354;28;20482;-56
2022/04/21 00:25:58;;;;;;;7.77;5.33;;;;;;;7.17;72.39;99502.19;5102240;28;20194;-56
2022/04/21 00:28:25;;;;;;;5.57;5.10;;;;;;;7.17;72.57;99503.91;5111726;28;20192;-56
2022/04/21 00:30:54;;;;;;;5.77;5.27;;;;;;;7.11;72.70;99496.91;5111983;28;20908;-56
2022/04/21 00:33:21;;;;;;;5.33;4.83;;;;;;;7.18;71.89;99503.94;5111284;28;20294;-56
2022/04/21 00:35:48;;;;;;;5.33;4.93;;;;;;;7.22;71.58;99500.66;5111928;28;20290;-56
2022/04/21 00:38:15;;;;;;;6.17;5.67;;;;;;;7.21;71.27;99504.03;5111730;28;20196;-56
2022/04/21 00:40:42;;;;;;;5.10;4.70;;;;;;;7.21;72.08;99506.59;5111908;28;20561;-56
2022/04/21 00:43:09;;;;;;;5.90;5.40;;;;;;;7.22;71.77;99513.44;5111413;28;20266;-56
2022/04/21 00:45:36;;;;;;;6.20;5.60;;;;;;;7.23;71.58;99516.84;5111690;28;20280;-56
2022/04/21 00:48:07;;;;;;;5.50;5.07;;;;;;;7.22;71.18;99515.13;5111790;28;20201;-56
2022/04/21 00:50:36;;;;;;;6.00;5.50;;;;;;;7.20;72.12;99527.00;5111179;28;20215;-56
2022/04/21 00:53:05;;;;;;;6.50;5.30;;;;;;;7.18;70.94;99526.06;5111227;28;20204;-56
2022/04/21 00:55:32;;;;;;;6.03;5.53;;;;;;;7.20;71.01;99520.16;5111212;28;20639;-56
2022/04/21 00:58:02;;;;;;;6.10;5.60;;;;;;;7.28;70.58;99521.25;5111069;28;20211;-56
2022/04/21 01:00:29;;;;;;;6.57;5.87;;;;;;;7.19;71.61;99522.69;5111152;28;20202;-56
2022/04/21 01:02:57;;;;;;;6.23;5.73;;;;;;;7.22;71.18;99523.66;5111051;28;20266;-56
2022/04/21 01:05:29;;;;;;;7.20;6.17;;;;;;;7.22;71.37;99533.00;5111084;28;20212;-56
2022/04/21 01:07:57;;;;;;;7.13;6.43;;;;;;;7.13;71.42;99533.59;5110895;28;20201;-56
2022/04/21 01:10:26;;;;;;;7.38;6.65;;;;;;;7.15;72.00;99537.06;5110816;28;20423;-56
2022/04/21 01:12:54;;;;;;;7.33;6.63;;;;;;;7.07;72.15;99533.41;5111323;28;21077;-56
2022/04/21 01:15:21;;;;;;;7.27;6.57;;;;;;;7.04;72.65;99533.31;5111012;28;20253;-56
2022/04/21 01:17:48;;;;;;;6.80;6.10;;;;;;;7.02;72.06;99538.38;5110827;28;20195;-56
2022/04/21 01:20:17;;;;;;;7.03;6.33;;;;;;;7.04;71.97;99544.41;5111011;28;20196;-56
2022/04/21 01:22:44;;;;;;;7.50;6.80;;;;;;;7.01;72.69;99546.84;5110956;28;20222;-56
2022/04/21 01:25:11;;;;;;;8.93;8.03;;;;;;;6.98;73.30;99538.22;5110879;28;20185;-56
2022/04/21 01:27:39;;;;;;;9.00;8.10;;;;;;;6.91;73.77;99541.41;5110872;28;20198;-56
2022/04/21 01:30:08;;;;;;;8.57;7.67;;;;;;;6.95;73.62;99546.66;5110782;28;20229;-56
2022/04/21 01:32:37;;;;;;;8.50;7.63;;;;;;;6.95;73.95;99543.25;5110545;28;20644;-56
2022/04/21 01:35:06;;;;;;;8.90;8.00;;;;;;;6.93;73.40;99534.66;5085989;28;20665;-56
2022/04/21 01:43:04;;;;;;;7.73;6.93;;;;;;;6.92;72.85;99520.19;5089624;28;20585;-56
2022/04/21 01:45:31;;;;;;;8.50;7.70;;;;;;;6.92;72.50;99518.47;5083103;28;20440;-56
2022/04/21 01:47:58;;;;;;;8.43;7.63;;;;;;;6.99;72.73;99516.97;5089542;28;20201;-56
2022/04/21 01:50:26;;;;;;;7.47;6.77;;;;;;;6.83;71.99;99476.47;5088804;28;20187;-56
2022/04/21 01:52:54;;;;;;;7.30;6.60;;;;;;;7.02;71.84;99517.06;5089593;28;20196;-56
2022/04/21 01:55:21;;;;;;;7.17;6.57;;;;;;;6.97;71.79;99511.84;5089969;28;20212;-56
2022/04/21 01:57:48;;;;;;;6.80;6.20;;;;;;;6.99;71.49;99511.88;5090081;28;20198;-56
2022/04/21 02:00:16;;;;;;;6.47;5.87;;;;;;;7.05;70.76;99514.63;5090342;28;20224;-59
2022/04/21 02:02:43;;;;;;;6.03;5.50;;;;;;;7.13;70.84;99518.25;5090316;28;20225;-60
2022/04/21 02:05:10;;;;;;;6.97;6.37;;;;;;;7.03;70.76;99506.88;5089774;28;20197;-60
2022/04/21 02:07:41;;;;;;;8.55;6.95;;;;;;;7.08;70.55;99507.91;5089848;28;20443;-60
2022/04/21 02:10:10;;;;;;;6.73;6.13;;;;;;;7.09;71.21;99513.88;5089967;28;20630;-60
2022/04/21 02:12:37;;;;;;;6.73;6.13;;;;;;;7.03;71.06;99506.03;5089643;28;20244;-60
2022/04/21 02:15:06;;;;;;;7.23;6.63;;;;;;;7.02;72.03;99515.38;5089851;28;20236;-59
2022/04/21 02:17:33;;;;;;;7.30;6.60;;;;;;;7.00;71.81;99508.50;5089766;28;20253;-60
2022/04/21 02:20:00;;;;;;;7.87;7.17;;;;;;;7.05;71.49;99518.03;5089812;28;20197;-60
2022/04/21 02:22:28;;;;;;;7.53;6.80;;;;;;;6.73;71.57;99464.25;5089612;28;20228;-60
2022/04/21 02:24:54;;;;;;;7.00;6.13;;;;;;;7.02;71.11;99510.28;5089770;28;20190;-60
2022/04/21 02:27:23;;;;;;;8.02;7.22;;;;;;;7.04;71.90;99515.44;5089436;28;20815;-61
2022/04/21 02:29:52;;;;;;;7.63;6.93;;;;;;;7.12;70.98;99513.97;5089739;28;20607;-60
2022/04/21 02:32:19;;;;;;;9.03;6.60;;;;;;;7.14;70.62;99510.63;5089568;28;20194;-60
2022/04/21 02:34:45;;;;;;;7.80;6.87;;;;;;;7.17;70.41;99509.00;5089592;28;20196;-60
2022/04/21 02:37:12;;;;;;;12.30;8.80;;;;;;;7.17;70.68;99514.97;5089648;28;20190;-60
2022/04/21 02:39:39;;;;;;;8.10;6.87;;;;;;;7.21;69.93;99509.13;5089329;28;20193;-60
2022/04/21 02:42:07;;;;;;;8.57;7.63;;;;;;;7.21;69.75;99509.13;5089432;28;20198;-60
2022/04/21 02:44:35;;;;;;;7.13;6.53;;;;;;;7.19;69.38;99510.78;5089372;28;20221;-60
2022/04/21 02:47:04;;;;;;;8.60;6.43;;;;;;;7.22;69.01;99504.91;5089647;28;20955;-59
2022/04/21 02:49:32;;;;;;;6.93;6.23;;;;;;;7.23;69.56;99511.72;5087759;28;20641;-60
2022/04/21 02:51:59;;;;;;;6.43;5.83;;;;;;;7.26;68.92;99509.25;5089507;28;20608;-61
2022/04/21 02:57:23;;;;;;;6.70;6.03;;;;;;;7.21;69.24;99493.81;5090968;28;20189;-60
2022/04/21 02:59:53;;;;;;;6.80;6.20;;;;;;;7.25;69.34;99495.63;5093002;28;20564;-62
2022/04/21 03:02:20;;;;;;;6.97;6.00;;;;;;;7.10;69.30;99479.84;5092850;28;20315;-61
2022/04/21 03:04:48;;;;;;;6.70;6.00;;;;;;;7.25;69.42;99494.78;5092824;28;20289;-60
2022/04/21 03:07:17;;;;;;;7.87;6.57;;;;;;;7.24;69.12;99495.59;5087472;28;20199;-59
2022/04/21 03:09:44;;;;;;;8.63;7.23;;;;;;;7.21;69.14;99496.38;5080106;28;20309;-59
2022/04/21 03:12:12;;;;;;;8.70;7.80;;;;;;;7.29;69.18;99507.66;5089849;28;20455;-60
2022/04/21 03:14:40;;;;;;;8.20;7.50;;;;;;;7.34;69.55;99518.00;5092509;28;20317;-60
2022/04/21 03:17:10;;;;;;;8.47;7.67;;;;;;;7.17;69.43;99486.03;5092456;28;20294;-60
2022/04/21 03:19:38;;;;;;;9.33;8.33;;;;;;;7.33;70.12;99518.88;5092840;28;20282;-59
2022/04/21 03:24:50;;;;;;;10.30;9.00;;;;;;;7.12;72.79;99519.94;5092725;28;21047;-60
2022/04/21 03:27:17;;;;;;;10.83;9.73;;;;;;;7.10;72.47;99524.16;5092881;28;20247;-61
2022/04/21 03:29:44;;;;;;;9.90;8.75;;;;;;;7.06;72.33;99524.00;5093048;28;20090;-60
2022/04/21 03:32:14;;;;;;;9.67;8.70;;;;;;;7.03;72.20;99522.22;5092591;28;20267;-60
2022/04/21 03:34:42;;;;;;;12.30;8.80;;;;;;;6.93;73.33;99516.78;5092333;28;20656;-59
2022/04/21 03:37:10;;;;;;;10.90;9.47;;;;;;;6.96;74.08;99534.75;5092363;28;20292;-60
2022/04/21 03:39:38;;;;;;;9.60;8.70;;;;;;;6.87;74.13;99540.44;5092325;28;20728;-60
2022/04/21 03:42:07;;;;;;;10.43;8.97;;;;;;;6.67;75.35;99536.41;5092733;28;20177;-59
2022/04/21 03:44:35;;;;;;;12.07;9.27;;;;;;;6.65;74.61;99537.19;5092460;28;20305;-60
2022/04/21 03:47:01;;;;;;;10.80;9.70;;;;;;;6.59;75.47;99536.97;5092388;28;20197;-60
2022/04/21 03:49:31;;;;;;;11.23;10.10;;;;;;;6.47;75.99;99520.44;5092244;28;20190;-60
2022/04/21 03:51:58;;;;;;;14.87;10.23;;;;;;;6.63;76.32;99546.44;5092286;28;20300;-60
2022/04/21 03:54:26;;;;;;;11.03;9.87;;;;;;;6.66;76.50;99532.13;5091475;28;20190;-60
2022/04/21 03:56:54;;;;;;;14.97;10.60;;;;;;;6.48;78.02;99541.75;5091241;28;20193;-60
2022/04/21 03:59:22;;;;;;;14.23;11.53;;;;;;;6.43;78.40;99546.66;5102218;28;20284;-60
2022/04/21 04:01:49;;;;;;;14.43;12.10;;;;;;;6.56;77.92;99537.75;5112311;28;20198;-61
2022/04/21 04:04:17;;;;;;;14.70;11.73;;;;;;;6.42;77.94;99516.00;5112165;28;20708;-61
2022/04/21 04:12:14;;;;;;;16.33;13.50;;;;;;;6.78;77.37;99536.75;5112346;28;20190;-60
2022/04/21 04:14:41;;;;;;;15.90;14.07;;;;;;;6.74;78.28;99520.47;5109352;28;20223;-59
2022/04/21 04:17:08;;;;;;;15.50;12.60;;;;;;;6.86;76.38;99540.41;5109214;28;20641;-60
2022/04/21 04:19:36;;;;;;;27.27;20.67;;;;;;;6.84;75.99;99534.41;5098340;28;20622;-61
2022/04/21 04:22:06;;;;;;;22.50;16.37;;;;;;;6.92;75.40;99546.56;5091000;28;20196;-60
2022/04/21 04:24:33;;;;;;;20.23;15.70;;;;;;;6.83;74.27;99530.97;5091773;28;20223;-59
2022/04/21 04:27:00;;;;;;;20.13;15.73;;;;;;;6.77;74.17;99502.69;5071340;28;20206;-59
2022/04/21 04:29:27;;;;;;;21.17;17.30;;;;;;;7.06;74.06;99537.63;5091233;28;20218;-59
2022/04/21 04:31:54;;;;;;;16.50;13.10;;;;;;;7.14;73.79;99538.72;5102025;28;20202;-60
2022/04/21 04:34:22;;;;;;;14.03;12.40;;;;;;;7.19;73.27;99538.91;5091408;28;20189;-60
2022/04/21 04:36:50;;;;;;;13.23;10.60;;;;;;;7.31;72.60;99536.69;5090732;28;20690;-60
2022/04/21 04:39:18;;;;;;;15.23;11.07;;;;;;;7.38;72.00;99527.53;5091668;28;20292;-59
2022/04/21 04:44:29;;;;;;;13.82;12.13;;;;;;;7.43;70.38;99533.63;5084022;28;20439;-60
2022/04/21 04:46:55;;;;;;;15.70;12.27;;;;;;;7.52;70.34;99537.34;5091120;28;20204;-59
2022/04/21 04:49:22;;;;;;;14.13;11.83;;;;;;;7.61;70.34;99534.16;5090746;28;20197;-60
2022/04/21 04:51:50;;;;;;;13.57;11.83;;;;;;;7.48;70.13;99522.72;5091421;28;20194;-60
2022/04/21 04:54:19;;;;;;;13.03;11.13;;;;;;;7.66;69.46;99538.56;5091132;28;20293;-60
2022/04/21 04:56:47;;;;;;;15.33;11.17;;;;;;;7.71;69.42;99529.34;5091055;28;20683;-60
2022/04/21 04:59:14;;;;;;;13.80;11.93;;;;;;;7.76;68.69;99524.38;5091251;28;20557;-60
2022/04/21 05:01:43;;;;;;;14.63;11.80;;;;;;;7.82;69.16;99524.53;5089402;28;20195;-60
2022/04/21 05:04:11;;;;;;;14.23;12.43;;;;;;;7.92;69.05;99531.63;5090690;28;20218;-60
2022/04/21 05:06:39;;;;;;;14.97;12.13;;;;;;;7.96;68.56;99527.47;5090141;28;20208;-59
2022/04/21 05:09:09;;;;;;;12.50;11.03;;;;;;;7.86;68.46;99520.34;5088820;28;20215;-60
2022/04/21 05:11:37;;;;;;;13.23;11.93;;;;;;;7.84;68.26;99525.44;5090445;28;20198;-60
2022/04/21 05:14:06;;;;;;;15.93;11.57;;;;;;;7.85;68.67;99524.63;5089895;28;20182;-60
2022/04/21 05:16:36;;;;;;;16.85;15.02;;;;;;;7.82;69.12;99531.34;5088972;28;20452;-60
2022/04/21 05:19:03;;;;;;;17.20;12.27;;;;;;;7.87;69.17;99532.31;5090043;28;20198;-60
2022/04/21 05:21:31;;;;;;;17.57;13.17;;;;;;;7.89;69.45;99530.66;5089780;28;20183;-60
2022/04/21 05:23:59;;;;;;;19.10;12.03;;;;;;;8.04;69.78;99531.09;5089675;28;20217;-60
2022/04/21 05:26:27;;;;;;;14.30;12.80;;;;;;;8.02;69.71;99538.72;5090039;28;20186;-60
2022/04/21 05:28:58;;;;;;;14.10;12.60;;;;;;;8.13;70.10;99550.09;5088909;28;20211;-60
2022/04/21 05:31:26;;;;;;;12.97;11.63;;;;;;;8.26;70.00;99554.75;5089790;28;20202;-60
2022/04/21 05:33:54;;;;;;;16.17;14.50;;;;;;;8.22;69.15;99547.78;5089048;28;20420;-60
2022/04/21 05:36:22;;;;;;;13.60;11.87;;;;;;;8.27;69.01;99551.38;5090104;28;20213;-60
2022/04/21 05:38:51;;;;;;;14.67;12.57;;;;;;;8.34;68.99;99551.53;5090131;28;20201;-60
2022/04/21 05:41:18;;;;;;;12.33;11.07;;;;;;;8.37;68.78;99555.06;5090101;28;20202;-60
2022/04/21 05:43:50;;;;;;;14.17;11.73;;;;;;;8.07;68.89;99547.41;5089967;28;20644;-60
2022/04/21 05:46:19;;;;;;;13.80;12.40;;;;;;;8.31;69.45;99560.00;5089822;28;20335;-59
2022/04/21 05:48:46;;;;;;;13.50;11.93;;;;;;;8.40;68.29;99564.50;5090011;28;20198;-60
2022/04/21 05:51:15;;;;;;;16.03;12.60;;;;;;;8.44;68.67;99569.72;5089979;28;20198;-60
2022/04/21 05:53:50;;;;;;;13.10;11.70;;;;;;;8.32;68.85;99570.28;5087361;28;20280;-61
2022/04/21 05:56:18;;;;;;;12.47;10.90;;;;;;;8.45;68.74;99566.34;5088797;28;20196;-61
2022/04/21 05:58:45;;;;;;;12.67;11.30;;;;;;;8.58;68.51;99577.75;5089244;28;20628;-61
2022/04/21 06:01:12;;;;;;;13.37;11.23;;;;;;;8.59;68.28;99574.38;5089243;28;20176;-60
2022/04/21 06:03:41;;;;;;;11.87;10.67;;;;;;;8.57;68.97;99570.94;5088078;28;20726;-60
2022/04/21 06:06:09;;;;;;;13.87;12.20;;;;;;;8.56;69.38;99564.06;5088489;28;20197;-61
2022/04/21 06:08:36;;;;;;;15.23;11.63;;;;;;;8.70;69.33;99567.84;5089447;28;20191;-57
2022/04/21 06:11:03;;;;;;;11.23;10.00;;;;;;;8.84;68.05;99561.34;5089104;28;20190;-57
2022/04/21 06:13:30;;;;;;;11.73;9.77;;;;;;;8.97;67.27;99557.38;5089058;28;20275;-57
2022/04/21 06:15:58;;;;;;;11.00;9.90;;;;;;;8.93;66.33;99559.00;5089750;28;20278;-57
2022/04/21 06:18:26;;;;;;;11.47;10.23;;;;;;;9.03;66.50;99557.53;5094053;28;20280;-57
2022/04/21 06:20:55;;;;;;;15.27;11.70;;;;;;;9.01;66.36;99561.75;5089506;28;20233;-57
2022/04/21 06:23:22;;;;;;;10.73;9.63;;;;;;;9.16;66.05;99554.41;5088641;28;20183;-56
2022/04/21 06:25:51;;;;;;;12.10;10.53;;;;;;;9.25;66.02;99545.25;5088828;28;20198;-57
2022/04/21 06:28:18;;;;;;;11.07;9.97;;;;;;;9.40;65.85;99555.81;5088929;28;20182;-56
2022/04/21 06:30:45;;;;;;;14.80;10.23;;;;;;;9.62;65.11;99562.25;5088625;28;20191;-58
2022/04/21 06:33:12;;;;;;;11.20;10.07;;;;;;;9.76;64.11;99554.84;5092510;28;20187;-60
2022/04/21 06:35:39;;;;;;;12.33;10.93;;;;;;;9.88;63.68;99558.53;5093411;28;20196;-59
2022/04/21 06:38:08;;;;;;;17.10;10.10;;;;;;;9.95;63.58;99560.38;5093491;28;20191;-59
2022/04/21 06:40:34;;;;;;;13.27;10.97;;;;;;;9.96;63.87;99564.69;5093364;28;20183;-59
2022/04/21 06:43:03;;;;;;;15.07;12.37;;;;;;;10.13;64.10;99557.34;5093826;28;20199;-59
2022/04/21 06:48:14;;;;;;;14.77;11.93;;;;;;;10.47;63.71;99551.09;5093742;28;20189;-57
2022/04/21 06:50:41;;;;;;;12.47;11.27;;;;;;;10.51;63.03;99546.06;5093273;28;20190;-57
2022/04/21 06:53:12;;;;;;;19.67;11.53;;;;;;;10.48;63.30;99535.72;5093619;28;20617;-57
2022/04/21 06:55:38;;;;;;;13.00;11.70;;;;;;;10.66;62.57;99535.16;5092780;28;20202;-57
2022/04/21 06:58:06;;;;;;;17.17;12.30;;;;;;;10.70;61.99;99531.81;5092936;28;20196;-57
2022/04/21 07:00:32;;;;;;;15.53;11.43;;;;;;;10.73;62.57;99543.84;5091336;28;20191;-57
2022/04/21 07:02:59;;;;;;;14.03;12.43;;;;;;;10.86;62.61;99546.63;5092753;28;20660;-57
2022/04/21 07:05:27;;;;;;;13.47;12.07;;;;;;;10.89;62.22;99543.25;5092810;28;20294;-57
2022/04/21 07:07:54;;;;;;;17.33;12.77;;;;;;;10.89;62.40;99549.25;5095251;28;20210;-57
2022/04/21 07:10:23;;;;;;;15.47;12.27;;;;;;;10.92;62.08;99549.31;5091965;28;20683;-57
2022/04/21 07:12:50;;;;;;;12.83;11.53;;;;;;;11.01;61.81;99539.16;5098838;28;20666;-57
2022/04/21 07:15:17;;;;;;;17.57;12.73;;;;;;;11.08;61.71;99540.09;5092157;28;20677;-57
2022/04/21 07:17:45;;;;;;;14.77;11.77;;;;;;;11.12;61.70;99544.47;5092618;28;20581;-57
2022/04/21 07:20:13;;;;;;;13.50;11.47;;;;;;;11.08;61.77;99543.53;5092352;28;20187;-57
2022/04/21 07:22:40;;;;;;;16.08;12.82;;;;;;;11.13;61.82;99546.16;5092130;28;20475;-57
2022/04/21 07:25:09;;;;;;;13.47;11.97;;;;;;;11.30;60.75;99539.56;5091990;28;20205;-57
2022/04/21 07:27:38;;;;;;;15.97;12.10;;;;;;;11.55;60.08;99535.63;5092517;28;20198;-57
2022/04/21 07:30:08;;;;;;;21.83;15.80;;;;;;;11.73;59.84;99544.47;5092656;28;20210;-57
2022/04/21 07:32:35;;;;;;;12.87;11.57;;;;;;;11.70;58.61;99543.59;5092428;28;20190;-57
2022/04/21 07:35:02;;;;;;;13.57;11.57;;;;;;;11.63;58.77;99539.16;5087959;28;20197;-57
2022/04/21 07:37:30;;;;;;;13.07;11.23;;;;;;;11.76;58.80;99547.06;5073192;28;20204;-57
2022/04/21 07:39:57;;;;;;;13.88;12.57;;;;;;;11.76;58.24;99543.63;5081851;28;20495;-58
2022/04/21 07:42:24;;;;;;;13.43;12.03;;;;;;;11.91;58.26;99542.97;5089800;28;20211;-57
2022/04/21 07:44:52;;;;;;;14.40;10.00;;;;;;;12.09;57.49;99551.75;5086267;28;20241;-57
2022/04/21 07:47:19;;;;;;;16.43;13.20;;;;;;;12.09;57.21;99546.59;5091918;28;20187;-57
2022/04/21 07:49:46;;;;;;;13.40;11.97;;;;;;;12.20;57.35;99545.00;5092302;28;20194;-59
2022/04/21 07:55:06;;;;;;;12.70;10.13;;;;;;;12.29;56.84;99539.09;5086527;28;20187;-58
2022/04/21 07:57:33;;;;;;;11.87;10.43;;;;;;;12.36;57.14;99536.56;5091811;28;20203;-58
2022/04/21 08:00:02;;;;;;;12.20;10.97;;;;;;;12.40;56.68;99540.91;5091601;28;20205;-59
2022/04/21 08:02:29;;;;;;;16.27;11.67;;;;;;;12.40;57.51;99540.06;5091878;28;20336;-57
2022/04/21 08:04:56;;;;;;;13.03;11.70;;;;;;;12.49;57.34;99542.72;5091824;28;20225;-58
2022/04/21 08:07:23;;;;;;;11.83;10.63;;;;;;;12.66;57.48;99542.88;5091651;28;20194;-58
2022/04/21 08:09:50;;;;;;;13.53;9.50;;;;;;;12.69;56.13;99551.47;5091663;28;20688;-58
2022/04/21 08:12:17;;;;;;;11.27;10.10;;;;;;;12.77;56.11;99546.41;5091555;28;20570;-58
2022/04/21 08:14:44;;;;;;;10.30;9.30;;;;;;;12.91;55.35;99545.66;5091674;28;20225;-57
2022/04/21 08:17:13;;;;;;;11.77;10.23;;;;;;;13.10;55.11;99549.28;5091511;28;20252;-57
2022/04/21 08:19:39;;;;;;;10.50;8.87;;;;;;;13.30;55.67;99555.41;5091527;28;20192;-59
2022/04/21 08:22:07;;;;;;;14.57;9.93;;;;;;;13.36;54.46;99554.59;5091404;28;20286;-57
2022/04/21 08:32:48;;;;;;;10.63;8.87;;;;;;;13.28;54.52;99557.13;5091147;28;20287;-58
2022/04/21 08:35:15;;;;;;;11.50;10.40;;;;;;;13.58;54.61;99554.72;5091081;28;20206;-58
2022/04/21 08:37:42;;;;;;;10.13;9.10;;;;;;;13.73;53.33;99556.53;5090992;28;20191;-58
2022/04/21 08:40:10;;;;;;;10.70;9.60;;;;;;;13.71;54.09;99552.19;5091167;28;20187;-58
2022/04/21 08:42:39;;;;;;;12.35;10.20;;;;;;;13.70;53.53;99545.31;5090691;28;20436;-58
2022/04/21 08:45:08;;;;;;;9.80;8.80;;;;;;;13.46;53.09;99539.16;5091228;28;20225;-58
2022/04/21 08:47:39;;;;;;;9.37;8.40;;;;;;;13.75;53.64;99546.19;5090851;28;20191;-58
2022/04/21 08:50:12;;;;;;;9.80;8.77;;;;;;;13.92;52.10;99542.81;5090906;28;20191;-58
2022/04/21 08:52:40;;;;;;;9.43;8.53;;;;;;;14.12;52.26;99555.78;5091018;28;20617;-58
2022/04/21 08:55:07;;;;;;;11.30;9.97;;;;;;;14.00;52.43;99556.63;5089905;28;20182;-58
2022/04/21 08:57:35;;;;;;;12.50;9.93;;;;;;;14.08;53.06;99543.72;5091047;28;20191;-58
2022/04/21 09:00:04;;;;;;;11.67;10.50;;;;;;;14.27;53.53;99534.28;5090532;28;20198;-58
2022/04/21 09:02:35;;;;;;;12.30;10.27;;;;;;;14.48;53.02;99539.53;5090111;28;20199;-58
2022/04/21 09:05:03;;;;;;;10.83;9.73;;;;;;;14.63;52.02;99530.09;5090785;28;20219;-58
2022/04/21 09:07:32;;;;;;;10.27;9.27;;;;;;;14.76;51.73;99536.09;5089732;28;20949;-58
2022/04/21 09:10:08;;;;;;;12.57;10.23;;;;;;;14.72;50.91;99517.13;5088293;28;20320;-58
2022/04/21 09:12:36;;;;;;;11.10;8.93;;;;;;;14.81;50.82;99536.09;5086484;28;20187;-58
2022/04/21 09:15:08;;;;;;;15.47;13.07;;;;;;;14.89;50.50;99534.41;5084608;28;20232;-58
2022/04/21 09:17:47;;;;;;;13.33;12.00;;;;;;;14.82;50.19;99525.75;5093303;28;20245;-58
2022/04/21 09:20:16;;;;;;;8.17;7.37;;;;;;;14.71;48.17;99536.13;5095270;28;20283;-58
2022/04/21 09:22:52;;;;;;;9.10;8.20;;;;;;;14.78;48.34;99527.47;5090792;28;20282;-58
2022/04/21 09:25:19;;;;;;;9.00;8.00;;;;;;;15.07;48.24;99524.03;5091467;28;20696;-57
2022/04/21 09:27:48;;;;;;;9.37;8.07;;;;;;;15.13;47.58;99516.25;5090858;28;20198;-58
2022/04/21 09:30:16;;;;;;;10.57;9.37;;;;;;;15.12;47.61;99524.88;5090621;28;20199;-58
2022/04/21 09:32:52;;;;;;;10.20;9.10;;;;;;;15.36;47.24;99520.50;5089845;28;20196;-58
2022/04/21 09:35:20;;;;;;;10.77;8.87;;;;;;;15.51;46.74;99522.22;5089864;28;20209;-58
2022/04/21 09:37:51;;;;;;;10.37;9.37;;;;;;;15.70;46.65;99515.25;5089926;28;20205;-58
2022/04/21 09:40:19;;;;;;;11.70;10.30;;;;;;;15.79;46.62;99512.63;5087669;28;20444;-58
2022/04/21 09:42:57;;;;;;;12.77;10.70;;;;;;;15.77;46.75;99520.38;5089664;28;20282;-58
2022/04/21 09:48:21;;;;;;;11.23;9.47;;;;;;;15.77;46.00;99511.75;5089682;28;20693;-58
2022/04/21 09:50:52;;;;;;;11.60;10.40;;;;;;;15.58;47.24;99510.97;5089371;28;20186;-60
2022/04/21 09:53:23;;;;;;;10.80;9.83;;;;;;;15.71;46.67;99484.13;5089554;28;20201;-61
2022/04/21 09:55:51;;;;;;;10.30;9.33;;;;;;;15.49;46.97;99499.78;5089776;28;20205;-60
2022/04/21 09:58:19;;;;;;;14.47;10.70;;;;;;;15.46;48.16;99500.66;5089580;28;20192;-61
2022/04/21 10:00:47;;;;;;;11.50;9.47;;;;;;;15.53;46.96;99492.00;5096500;28;20680;-60
2022/04/21 10:03:14;;;;;;;11.77;10.53;;;;;;;15.08;48.15;99497.28;5088919;28;20266;-61
2022/04/21 10:05:42;;;;;;;16.30;11.13;;;;;;;15.01;48.27;99500.72;5089574;28;20224;-61
2022/04/21 10:08:12;;;;;;;18.13;12.17;;;;;;;15.29;48.11;99489.47;5092314;28;20191;-61
2022/04/21 10:10:40;;;;;;;22.37;12.07;;;;;;;15.57;47.89;99491.13;5092492;28;20205;-62
2022/04/21 10:13:08;;;;;;;14.87;11.20;;;;;;;15.82;46.07;99492.72;5093724;28;20563;-60
2022/04/21 10:15:36;;;;;;;12.23;10.57;;;;;;;16.24;45.45;99490.75;5092856;28;20220;-60
2022/04/21 10:18:06;;;;;;;14.23;10.57;;;;;;;16.60;45.22;99479.28;5090256;28;20189;-62
2022/04/21 10:20:33;;;;;;;11.07;9.30;;;;;;;16.49;43.64;99479.34;5093307;28;20280;-61
2022/04/21 10:23:02;;;;;;;15.47;10.27;;;;;;;16.65;43.72;99482.69;5092757;28;20665;-61
2022/04/21 10:25:41;;;;;;;11.85;10.65;;;;;;;16.63;44.25;99476.66;5092606;28;20454;-60
2022/04/21 10:28:39;;;;;;;13.47;11.83;;;;;;;17.10;43.36;99487.47;5091078;28;20273;-60
2022/04/21 10:31:32;;;;;;;14.17;9.93;;;;;;;16.95;41.79;99482.41;5091044;28;20630;-60
2022/04/21 10:34:01;;;;;;;15.20;10.07;;;;;;;16.96;42.37;99481.56;5093260;28;20191;-60
2022/04/21 10:36:41;;;;;;;17.13;13.43;;;;;;;17.05;43.67;99466.78;5092971;28;20269;-60
2022/04/21 10:39:27;;;;;;;13.27;11.57;;;;;;;17.16;42.17;99479.63;5093000;28;20191;-61
2022/04/21 10:42:28;;;;;;;14.75;11.35;;;;;;;17.45;42.71;99471.50;5092672;28;20447;-60
2022/04/21 10:44:56;;;;;;;11.83;9.87;;;;;;;17.78;42.25;99465.91;5092786;28;20217;-62
2022/04/21 10:47:31;;;;;;;11.23;10.13;;;;;;;17.97;41.92;99469.97;5092958;28;20202;-62
2022/04/21 10:49:59;;;;;;;14.23;12.73;;;;;;;18.11;41.90;99468.06;5093288;28;20193;-61
2022/04/21 10:58:49;;;;;;;15.83;11.13;;;;;;;17.80;42.27;99458.94;5096709;28;20239;-58
2022/04/21 11:01:19;;;;;;;12.30;11.00;;;;;;;18.16;41.60;99462.78;5097369;28;20276;-58
2022/04/21 11:04:04;;;;;;;10.93;9.63;;;;;;;18.16;41.20;99458.44;5108067;28;20288;-58
2022/04/21 11:06:40;;;;;;;17.17;10.30;;;;;;;18.00;41.14;99456.94;5110210;28;20233;-58
2022/04/21 11:09:07;;;;;;;10.73;8.70;;;;;;;17.90;40.88;99455.38;5095416;28;20290;-58
2022/04/21 11:11:47;;;;;;;8.30;7.50;;;;;;;17.83;38.05;99471.03;5092630;28;20195;-58
2022/04/21 11:14:28;;;;;;;9.40;8.50;;;;;;;17.82;38.68;99462.41;5093000;28;20259;-58
2022/04/21 11:16:57;;;;;;;9.87;8.90;;;;;;;17.80;40.82;99465.91;5091544;28;20186;-57
2022/04/21 11:19:40;;;;;;;10.40;9.10;;;;;;;17.76;42.03;99467.69;5093118;28;20284;-57
2022/04/21 11:22:09;;;;;;;11.70;10.50;;;;;;;17.90;43.19;99455.38;5091688;28;20191;-57
2022/04/21 11:25:03;;;;;;;13.53;10.40;;;;;;;17.97;44.31;99462.19;5092156;28;20190;-57
2022/04/21 11:27:32;;;;;;;11.90;10.40;;;;;;;17.59;42.39;99457.50;5091457;28;20198;-57
2022/04/21 11:30:01;;;;;;;13.23;11.53;;;;;;;17.60;44.29;99445.38;5091148;28;20531;-57
2022/04/21 11:32:30;;;;;;;12.73;10.70;;;;;;;17.72;44.34;99432.22;5091009;28;20199;-57
2022/04/21 11:35:02;;;;;;;14.27;12.10;;;;;;;17.69;45.54;99427.06;5091243;28;20210;-58
2022/04/21 11:37:46;;;;;;;12.43;10.70;;;;;;;17.80;45.12;99429.53;5091820;28;20194;-58
2022/04/21 11:40:32;;;;;;;13.67;11.43;;;;;;;17.93;45.36;99428.47;5091374;28;20190;-60
2022/04/21 11:43:02;;;;;;;12.47;11.27;;;;;;;18.04;46.14;99422.25;5090676;28;20195;-61
2022/04/21 11:45:33;;;;;;;12.50;11.17;;;;;;;18.24;45.85;99411.50;5091104;28;20309;-62
2022/04/21 11:48:02;;;;;;;12.07;10.93;;;;;;;18.45;45.24;99412.91;5091009;28;20668;-61
2022/04/21 11:50:30;;;;;;;12.03;10.70;;;;;;;18.12;44.80;99406.50;5090956;28;20226;-61
2022/04/21 11:52:58;;;;;;;12.83;11.60;;;;;;;18.10;45.85;99400.47;5091542;28;20541;-61
2022/04/21 11:55:26;;;;;;;12.07;10.87;;;;;;;18.39;45.18;99400.84;5091509;28;20190;-61
2022/04/21 11:57:54;;;;;;;12.43;11.13;;;;;;;18.43;44.62;99386.91;5094351;28;20653;-61
2022/04/21 12:08:35;;;;;;;11.13;10.00;;;;;;;18.15;45.71;99383.94;5111937;28;20193;-62
2022/04/21 12:11:02;;;;;;;13.43;10.47;;;;;;;18.01;45.31;99385.88;5071401;28;20253;-61
2022/04/21 12:13:29;;;;;;;10.60;9.60;;;;;;;18.06;46.15;99373.66;5071295;28;20654;-61
2022/04/21 12:15:56;;;;;;;14.77;12.50;;;;;;;18.19;46.24;99384.72;5071125;28;20311;-61
2022/04/21 12:18:24;;;;;;;11.17;10.10;;;;;;;17.87;46.82;99374.81;5071038;28;20198;-61
2022/04/21 12:20:54;;;;;;;10.40;9.37;;;;;;;17.99;47.48;99371.19;5071285;28;20194;-61
2022/04/21 12:23:27;;;;;;;12.37;11.07;;;;;;;17.84;47.14;99374.00;5071395;28;20600;-61
2022/04/21 12:25:57;;;;;;;14.60;9.90;;;;;;;17.81;45.79;99366.25;5070938;28;20215;-61
2022/04/21 12:28:24;;;;;;;10.30;9.17;;;;;;;17.90;45.92;99366.13;5070991;28;20286;-61